Time;durP1;ratioP1;P1;durP2;ratioP2;P2;SDS_P1;SDS_P2;PMS_P1;PMS_P2;Temp;Humidity;BMP_temperature;BMP_pressure;BME280_temperature;BME280_humidity;BME280_pressure;Samples;Min_cycle;Max_cycle;Signal;HPM_P1;HPM_P2
2024/03/26 00:00:17;;;;;;;3.30;1.27;;;8.10;91.00;;;;;;4993631;28;20022;-70
2024/03/26 00:02:42;;;;;;;2.55;0.82;;;8.00;91.10;;;;;;4993609;28;20030;-70
2024/03/26 00:05:09;;;;;;;5.47;0.93;;;8.00;91.30;;;;;;4988113;28;20035;-71
2024/03/26 00:07:35;;;;;;;4.20;0.90;;;8.00;91.10;;;;;;4988163;28;20387;-70
2024/03/26 00:10:02;;;;;;;9.95;1.13;;;8.00;91.40;;;;;;4991714;28;20487;-70
2024/03/26 00:12:28;;;;;;;2.65;0.80;;;8.00;91.50;;;;;;4992593;28;20060;-70
2024/03/26 00:14:54;;;;;;;4.40;1.55;;;8.00;91.80;;;;;;4991925;28;20113;-70
2024/03/26 00:17:20;;;;;;;1.75;0.70;;;8.00;92.30;;;;;;4992225;28;20501;-70
2024/03/26 00:19:45;;;;;;;0.85;0.57;;;7.90;92.30;;;;;;5003592;28;20038;-70
2024/03/26 00:22:11;;;;;;;0.95;0.70;;;7.90;92.60;;;;;;4986296;28;20430;-70
2024/03/26 00:24:37;;;;;;;1.63;0.88;;;7.90;93.30;;;;;;4991871;28;20126;-70
2024/03/26 00:27:02;;;;;;;1.98;0.90;;;7.90;92.70;;;;;;4991877;28;20053;-70
2024/03/26 00:29:28;;;;;;;1.67;0.63;;;7.90;92.80;;;;;;4983833;28;20054;-69
2024/03/26 00:31:54;;;;;;;3.40;1.02;;;7.90;93.20;;;;;;4991653;28;20026;-70
2024/03/26 00:34:20;;;;;;;1.98;1.00;;;7.90;92.80;;;;;;4992443;28;20081;-68
2024/03/26 00:36:45;;;;;;;2.28;0.82;;;8.00;92.60;;;;;;4992551;28;20035;-69
2024/03/26 00:39:11;;;;;;;2.03;0.65;;;8.00;93.10;;;;;;4979882;28;20439;-69
2024/03/26 00:41:37;;;;;;;0.70;0.55;;;8.00;92.70;;;;;;4982119;28;20058;-69
2024/03/26 00:44:02;;;;;;;0.95;0.88;;;8.10;92.70;;;;;;4998878;28;20026;-70
2024/03/26 00:46:28;;;;;;;3.83;0.80;;;8.10;92.10;;;;;;4973901;28;20527;-69
2024/03/26 00:48:54;;;;;;;5.20;0.80;;;8.10;92.90;;;;;;4975115;28;20044;-70
2024/03/26 00:51:20;;;;;;;1.02;0.70;;;8.10;92.30;;;;;;4993418;28;20454;-70
2024/03/26 00:53:45;;;;;;;2.63;0.70;;;8.10;92.30;;;;;;4988617;28;20031;-69
2024/03/26 00:56:11;;;;;;;2.33;1.10;;;8.20;92.10;;;;;;4988254;28;20038;-69
2024/03/26 00:58:37;;;;;;;1.08;0.52;;;8.20;92.20;;;;;;4995265;28;20030;-70
2024/03/26 01:01:09;;;;;;;1.27;0.73;;;8.20;92.20;;;;;;4991177;28;20080;-69
2024/03/26 01:03:35;;;;;;;2.13;0.55;;;8.20;92.40;;;;;;4993940;28;20026;-69
2024/03/26 01:06:01;;;;;;;1.42;0.80;;;8.20;92.40;;;;;;4983799;28;20030;-69
2024/03/26 01:08:27;;;;;;;7.18;0.85;;;8.20;92.70;;;;;;4979046;28;20053;-69
2024/03/26 01:10:53;;;;;;;1.55;0.88;;;8.20;92.70;;;;;;4997353;28;20057;-70
2024/03/26 01:13:19;;;;;;;1.25;0.70;;;8.20;92.60;;;;;;4988351;28;20034;-70
2024/03/26 01:15:45;;;;;;;1.85;0.93;;;8.20;93.00;;;;;;4988384;28;20039;-70
2024/03/26 01:18:11;;;;;;;1.95;0.98;;;8.20;92.60;;;;;;4991898;28;20022;-70
2024/03/26 01:20:37;;;;;;;1.70;1.00;;;8.20;92.90;;;;;;4987131;28;20109;-70
2024/03/26 01:23:04;;;;;;;0.60;0.45;;;8.20;93.30;;;;;;4972174;28;20041;-70
2024/03/26 01:25:31;;;;;;;0.90;0.43;;;8.20;92.90;;;;;;4978988;28;20062;-70
2024/03/26 01:27:57;;;;;;;3.63;0.90;;;8.20;93.30;;;;;;4989577;28;20031;-70
2024/03/26 01:30:24;;;;;;;2.72;0.80;;;8.10;93.30;;;;;;4983302;28;20693;-70
2024/03/26 01:32:50;;;;;;;1.20;0.75;;;8.30;92.40;;;;;;4975823;28;20054;-70
2024/03/26 01:35:17;;;;;;;0.80;0.70;;;8.20;92.70;;;;;;4989824;28;20038;-70
2024/03/26 01:37:43;;;;;;;3.35;0.80;;;8.20;92.90;;;;;;4991159;28;20033;-70
2024/03/26 01:40:11;;;;;;;0.90;0.52;;;8.20;93.30;;;;;;4973687;28;20026;-69
2024/03/26 01:42:39;;;;;;;5.38;1.02;;;8.10;93.60;;;;;;4979605;28;20037;-69
2024/03/26 01:45:06;;;;;;;4.82;1.02;;;8.00;94.10;;;;;;4986443;28;20564;-69
2024/03/26 01:47:36;;;;;;;3.30;0.98;;;8.00;94.40;;;;;;4987704;28;20031;-69
2024/03/26 01:50:07;;;;;;;3.55;1.25;;;7.90;94.60;;;;;;4990699;28;20089;-69
2024/03/26 01:52:32;;;;;;;1.60;0.90;;;7.90;95.10;;;;;;4978770;28;20027;-69
2024/03/26 01:54:59;;;;;;;5.10;1.13;;;7.90;95.30;;;;;;4973500;28;20439;-69
2024/03/26 01:57:25;;;;;;;5.55;0.90;;;7.80;95.60;;;;;;4971738;28;20431;-69
2024/03/26 01:59:54;;;;;;;1.45;0.70;;;7.70;96.10;;;;;;4989292;28;20027;-69
2024/03/26 02:02:20;;;;;;;3.45;1.60;;;7.70;96.40;;;;;;4981098;28;20034;-70
2024/03/26 02:04:47;;;;;;;1.33;0.90;;;7.50;97.20;;;;;;4991675;28;20146;-71
2024/03/26 02:07:18;;;;;;;9.05;1.15;;;7.50;97.90;;;;;;4982752;28;20034;-70
2024/03/26 02:09:47;;;;;;;2.55;0.95;;;7.40;97.80;;;;;;4987587;28;20119;-70
2024/03/26 02:12:13;;;;;;;4.07;1.10;;;7.30;98.00;;;;;;5001923;28;20035;-70
2024/03/26 02:14:39;;;;;;;3.47;1.25;;;7.30;98.10;;;;;;4986402;28;20022;-70
2024/03/26 02:17:05;;;;;;;2.67;1.02;;;7.20;98.70;;;;;;4977883;28;20053;-70
2024/03/26 02:19:31;;;;;;;2.60;0.80;;;7.20;98.50;;;;;;4972212;28;20015;-70
2024/03/26 02:21:57;;;;;;;3.63;1.02;;;7.10;98.80;;;;;;4988851;28;20031;-70
2024/03/26 02:24:23;;;;;;;1.55;0.82;;;7.10;98.80;;;;;;4985389;28;20031;-70
2024/03/26 02:26:49;;;;;;;4.32;1.48;;;7.10;98.90;;;;;;4975124;28;20081;-70
2024/03/26 02:29:15;;;;;;;2.70;1.23;;;7.10;98.70;;;;;;4974599;28;20399;-70
2024/03/26 02:31:41;;;;;;;1.15;0.77;;;7.10;98.60;;;;;;4991284;28;20126;-70
2024/03/26 02:34:06;;;;;;;1.48;0.70;;;7.10;99.40;;;;;;4985144;28;20037;-70
2024/03/26 02:36:32;;;;;;;1.75;1.38;;;7.10;99.10;;;;;;4994848;28;20339;-70
2024/03/26 02:38:58;;;;;;;1.08;0.93;;;7.10;99.10;;;;;;4986779;28;20030;-71
2024/03/26 02:41:24;;;;;;;1.33;0.85;;;7.10;98.90;;;;;;4986395;28;20072;-70
2024/03/26 02:43:50;;;;;;;4.95;1.10;;;7.10;99.00;;;;;;4986020;28;20522;-70
2024/03/26 02:46:16;;;;;;;1.55;0.90;;;7.20;99.50;;;;;;4972206;28;20110;-70
2024/03/26 02:48:42;;;;;;;3.53;0.98;;;7.10;99.40;;;;;;5004768;28;20058;-70
2024/03/26 02:51:08;;;;;;;11.13;1.20;;;7.00;99.90;;;;;;4981340;28;20150;-70
2024/03/26 02:53:34;;;;;;;1.70;1.02;;;7.00;99.90;;;;;;4976987;28;20476;-70
2024/03/26 02:55:59;;;;;;;5.85;1.08;;;6.80;99.90;;;;;;4990664;28;20038;-70
2024/03/26 02:58:25;;;;;;;1.00;0.80;;;6.70;99.90;;;;;;4990879;28;20030;-70
2024/03/26 03:00:51;;;;;;;1.88;1.08;;;6.50;99.90;;;;;;4960706;28;20471;-70
2024/03/26 03:03:17;;;;;;;1.52;0.85;;;6.50;99.90;;;;;;4991233;28;20062;-70
2024/03/26 03:05:43;;;;;;;1.33;0.75;;;6.50;99.90;;;;;;4983292;28;20121;-70
2024/03/26 03:08:08;;;;;;;1.35;0.85;;;6.50;99.90;;;;;;4990057;28;20078;-70
2024/03/26 03:10:34;;;;;;;4.18;1.13;;;6.60;99.90;;;;;;4982962;28;20048;-70
2024/03/26 03:13:00;;;;;;;3.00;1.25;;;6.40;99.90;;;;;;4990159;28;20031;-70
2024/03/26 03:15:26;;;;;;;3.17;1.25;;;6.40;99.90;;;;;;4994264;28;20037;-70
2024/03/26 03:17:51;;;;;;;2.70;1.00;;;6.50;99.90;;;;;;4992125;28;20026;-69
2024/03/26 03:20:17;;;;;;;2.15;1.00;;;6.40;99.90;;;;;;4976802;28;20081;-69
2024/03/26 03:22:44;;;;;;;2.97;1.30;;;6.40;99.90;;;;;;4989703;28;20097;-69
2024/03/26 03:25:09;;;;;;;5.20;0.90;;;6.30;99.90;;;;;;4975964;28;20054;-70
2024/03/26 03:27:35;;;;;;;3.67;1.95;;;6.20;99.90;;;;;;4998184;28;20061;-69
2024/03/26 03:30:01;;;;;;;8.43;1.30;;;6.30;99.90;;;;;;4991800;28;20037;-69
2024/03/26 03:32:27;;;;;;;3.28;1.15;;;6.30;99.90;;;;;;4974892;28;20039;-70
2024/03/26 03:34:56;;;;;;;4.38;1.85;;;6.20;99.90;;;;;;4980966;28;20026;-70
2024/03/26 03:37:21;;;;;;;2.80;0.70;;;6.20;99.90;;;;;;4989713;28;20057;-72
2024/03/26 03:39:47;;;;;;;4.63;1.17;;;6.10;99.90;;;;;;4980360;28;20463;-70
2024/03/26 03:42:13;;;;;;;1.52;1.00;;;5.90;99.90;;;;;;4988529;28;20023;-68
2024/03/26 03:44:39;;;;;;;1.58;0.75;;;5.90;99.90;;;;;;4989549;28;20034;-69
2024/03/26 03:47:06;;;;;;;2.05;0.95;;;6.00;99.90;;;;;;4976139;28;20030;-69
2024/03/26 03:49:32;;;;;;;3.83;1.20;;;6.00;99.90;;;;;;4981316;28;20468;-70
2024/03/26 03:52:02;;;;;;;2.67;1.30;;;6.00;99.90;;;;;;4975743;28;20082;-70
2024/03/26 03:54:27;;;;;;;2.33;1.20;;;6.00;99.90;;;;;;5019414;23;20007;-73
2024/03/26 03:56:54;;;;;;;3.35;1.45;;;6.10;99.90;;;;;;5031064;28;20570;-73
2024/03/26 03:59:21;;;;;;;16.83;4.25;;;6.10;99.90;;;;;;5031914;28;20163;-73
2024/03/26 04:01:47;;;;;;;6.28;2.03;;;6.20;99.90;;;;;;5010736;28;20452;-73
2024/03/26 04:04:13;;;;;;;1.45;0.93;;;6.20;99.90;;;;;;5007402;28;20386;-73
2024/03/26 04:06:39;;;;;;;2.63;1.23;;;6.20;99.90;;;;;;5018669;28;20040;-73
2024/03/26 04:09:05;;;;;;;6.47;1.33;;;6.20;99.90;;;;;;5023822;28;20018;-73
2024/03/26 04:11:31;;;;;;;2.15;1.40;;;6.20;99.90;;;;;;5028645;28;20033;-73
2024/03/26 04:13:57;;;;;;;3.00;1.20;;;6.20;99.90;;;;;;5024589;28;20044;-74
2024/03/26 04:16:23;;;;;;;1.75;1.23;;;6.20;99.90;;;;;;5019150;28;20474;-74
2024/03/26 04:18:50;;;;;;;1.90;1.13;;;6.10;99.90;;;;;;5027228;28;20025;-73
2024/03/26 04:21:16;;;;;;;3.20;1.20;;;6.10;99.90;;;;;;5016402;28;20433;-74
2024/03/26 04:23:42;;;;;;;5.20;1.80;;;6.10;99.90;;;;;;5026059;28;20054;-74
2024/03/26 04:26:09;;;;;;;3.60;1.60;;;6.10;99.90;;;;;;5027796;28;20490;-74
2024/03/26 04:28:35;;;;;;;3.25;1.38;;;6.10;99.90;;;;;;5021936;28;20029;-74
2024/03/26 04:31:01;;;;;;;1.90;1.08;;;6.10;99.90;;;;;;5029558;28;20452;-73
2024/03/26 04:33:26;;;;;;;4.70;1.90;;;6.00;99.90;;;;;;5020530;28;20743;-73
2024/03/26 04:35:52;;;;;;;7.82;2.03;;;6.00;99.90;;;;;;5024371;28;20038;-74
2024/03/26 04:38:18;;;;;;;5.18;1.65;;;5.90;99.90;;;;;;5028627;28;20025;-73
2024/03/26 04:40:44;;;;;;;3.33;1.67;;;6.00;99.90;;;;;;5015977;28;20073;-73
2024/03/26 04:43:11;;;;;;;2.45;0.90;;;6.00;99.90;;;;;;5020683;28;20049;-73
2024/03/26 04:45:38;;;;;;;3.00;1.30;;;5.90;99.90;;;;;;5026417;28;20091;-73
2024/03/26 04:48:04;;;;;;;1.92;1.13;;;5.90;99.90;;;;;;5013039;28;20037;-73
2024/03/26 04:50:31;;;;;;;2.15;1.10;;;5.80;99.90;;;;;;5022553;28;20040;-73
2024/03/26 04:52:56;;;;;;;3.70;1.50;;;5.60;99.90;;;;;;5027686;28;20043;-73
2024/03/26 04:55:22;;;;;;;1.67;1.00;;;5.60;99.90;;;;;;5028624;28;20607;-73
2024/03/26 04:57:48;;;;;;;2.42;1.45;;;5.60;99.90;;;;;;5026062;28;20030;-73
2024/03/26 05:00:15;;;;;;;2.85;1.63;;;5.60;99.90;;;;;;5023012;28;20052;-74
2024/03/26 05:02:42;;;;;;;2.05;1.60;;;5.60;99.90;;;;;;5028160;28;20036;-75
2024/03/26 05:05:09;;;;;;;2.78;1.17;;;5.60;99.90;;;;;;5020303;28;20567;-73
2024/03/26 05:07:36;;;;;;;6.57;1.70;;;5.60;99.90;;;;;;5049074;28;20033;-74
2024/03/26 05:10:07;;;;;;;5.78;1.65;;;5.70;99.90;;;;;;5027746;28;20021;-75
2024/03/26 05:12:33;;;;;;;4.03;1.67;;;5.80;99.90;;;;;;5037859;28;20037;-78
2024/03/26 05:14:59;;;;;;;2.25;1.35;;;5.70;99.90;;;;;;5033961;28;20060;-73
2024/03/26 05:17:25;;;;;;;2.30;1.10;;;5.70;99.90;;;;;;5036616;28;20140;-74
2024/03/26 05:19:51;;;;;;;2.17;1.15;;;5.70;99.90;;;;;;5027660;28;20026;-74
2024/03/26 05:22:16;;;;;;;2.67;1.15;;;5.70;99.90;;;;;;5032607;28;20018;-74
2024/03/26 05:24:43;;;;;;;6.72;1.77;;;5.70;99.90;;;;;;5034441;28;20045;-73
2024/03/26 05:27:09;;;;;;;1.83;0.98;;;5.70;99.90;;;;;;5014702;28;20038;-74
2024/03/26 05:29:37;;;;;;;81.78;34.63;;;5.80;99.90;;;;;;5025933;28;20029;-74
2024/03/26 05:32:04;;;;;;;8.43;2.92;;;5.90;99.90;;;;;;5013292;28;20044;-73
2024/03/26 05:34:30;;;;;;;3.80;2.22;;;5.90;99.90;;;;;;5029877;28;20033;-74
2024/03/26 05:36:56;;;;;;;3.28;2.13;;;6.00;99.90;;;;;;5027429;28;20033;-75
2024/03/26 05:39:22;;;;;;;5.35;1.77;;;6.10;99.90;;;;;;5021011;28;20025;-74
2024/03/26 05:41:51;;;;;;;3.03;1.70;;;6.30;99.90;;;;;;5012695;28;20060;-73
2024/03/26 05:44:17;;;;;;;7.32;1.80;;;6.30;99.90;;;;;;5027119;28;20084;-74
2024/03/26 05:46:43;;;;;;;9.05;2.42;;;6.40;99.90;;;;;;5026097;28;20091;-74
2024/03/26 05:49:09;;;;;;;5.35;2.05;;;6.40;99.90;;;;;;5014621;28;20532;-74
2024/03/26 05:51:35;;;;;;;9.70;1.88;;;6.50;99.90;;;;;;5030139;28;20132;-75
2024/03/26 05:54:01;;;;;;;2.05;1.65;;;6.50;99.90;;;;;;5015129;28;20050;-75
2024/03/26 05:56:27;;;;;;;7.28;1.50;;;6.40;99.90;;;;;;5006436;28;20038;-76
2024/03/26 05:58:55;;;;;;;2.60;1.30;;;6.40;99.90;;;;;;5022890;28;20041;-75
2024/03/26 06:01:21;;;;;;;6.68;2.33;;;6.40;99.90;;;;;;5018094;28;20112;-74
2024/03/26 06:03:47;;;;;;;3.78;1.92;;;6.30;99.90;;;;;;5026498;28;20484;-74
2024/03/26 06:06:13;;;;;;;3.17;1.83;;;6.30;99.90;;;;;;5020970;28;20046;-75
2024/03/26 06:08:39;;;;;;;3.22;1.50;;;6.30;99.90;;;;;;5013884;28;20050;-73
2024/03/26 06:11:05;;;;;;;8.40;1.80;;;6.30;99.90;;;;;;5028623;28;20029;-75
2024/03/26 06:13:31;;;;;;;5.70;2.03;;;6.30;99.90;;;;;;5018289;28;20083;-73
2024/03/26 06:16:09;;;;;;;4.20;1.48;;;6.20;99.90;;;;;;5014676;28;20088;-73
2024/03/26 06:18:36;;;;;;;4.97;2.13;;;6.30;99.90;;;;;;5024224;28;20106;-74
2024/03/26 06:21:05;;;;;;;5.75;1.75;;;6.40;99.90;;;;;;5028779;28;20030;-73
2024/03/26 06:23:32;;;;;;;4.32;1.75;;;6.40;99.90;;;;;;5016103;28;20017;-73
2024/03/26 06:26:00;;;;;;;5.80;1.98;;;6.40;99.90;;;;;;5015830;28;20421;-75
2024/03/26 06:28:26;;;;;;;4.05;1.95;;;6.30;99.90;;;;;;5030515;28;20067;-76
2024/03/26 06:30:52;;;;;;;4.40;1.33;;;6.30;99.90;;;;;;5024394;28;20060;-74
2024/03/26 06:33:18;;;;;;;3.05;1.50;;;6.10;99.90;;;;;;5025513;28;20034;-75
2024/03/26 06:35:44;;;;;;;2.65;1.17;;;6.30;99.90;;;;;;5027060;28;20045;-73
2024/03/26 06:38:10;;;;;;;2.42;1.60;;;6.40;99.90;;;;;;5019559;28;20285;-77
2024/03/26 06:40:37;;;;;;;3.92;1.65;;;6.40;99.90;;;;;;5030934;28;20017;-78
2024/03/26 06:43:04;;;;;;;2.13;1.55;;;6.60;99.90;;;;;;5025335;28;20033;-77
2024/03/26 06:45:30;;;;;;;4.50;1.52;;;6.50;99.90;;;;;;5021582;28;20028;-78
2024/03/26 06:47:56;;;;;;;17.17;1.70;;;6.60;99.90;;;;;;5039162;28;20059;-76
2024/03/26 06:50:22;;;;;;;3.47;1.42;;;6.60;99.90;;;;;;5025235;28;20427;-73
2024/03/26 06:52:52;;;;;;;1.65;0.95;;;6.70;99.90;;;;;;5031232;28;20073;-75
2024/03/26 06:55:30;;;;;;;3.42;1.67;;;6.60;99.90;;;;;;5026725;28;20030;-76
2024/03/26 06:57:56;;;;;;;6.57;2.08;;;6.60;99.90;;;;;;5016185;28;20049;-77
2024/03/26 07:00:22;;;;;;;4.00;1.75;;;6.70;99.90;;;;;;5015567;28;20065;-77
2024/03/26 07:02:48;;;;;;;6.72;1.63;;;6.70;99.90;;;;;;4999555;28;20092;-78
2024/03/26 07:05:13;;;;;;;4.78;1.20;;;6.80;99.90;;;;;;5034834;28;20488;-77
2024/03/26 07:07:39;;;;;;;1.42;0.82;;;6.80;99.90;;;;;;5017026;28;20042;-76
2024/03/26 07:10:06;;;;;;;5.38;1.83;;;6.90;99.90;;;;;;5020797;28;20108;-77
2024/03/26 07:12:33;;;;;;;5.43;1.70;;;6.80;99.90;;;;;;5029758;28;20026;-77
2024/03/26 07:14:59;;;;;;;5.18;1.45;;;7.00;99.90;;;;;;5016439;28;20022;-75
2024/03/26 07:17:25;;;;;;;6.43;2.97;;;7.10;99.90;;;;;;5024847;28;20037;-76
2024/03/26 07:19:51;;;;;;;5.75;2.67;;;7.10;99.90;;;;;;5015280;28;20037;-79
2024/03/26 07:22:17;;;;;;;6.22;2.63;;;7.10;99.90;;;;;;5018984;28;20029;-78
2024/03/26 07:24:43;;;;;;;2.80;1.98;;;7.20;99.90;;;;;;5034774;28;20144;-79
2024/03/26 07:27:11;;;;;;;5.57;2.00;;;7.30;99.90;;;;;;5033974;28;20037;-78
2024/03/26 07:29:39;;;;;;;7.05;2.15;;;7.50;99.90;;;;;;5028649;28;20068;-76
2024/03/26 07:32:05;;;;;;;2.80;1.75;;;7.70;99.90;;;;;;5022877;28;20049;-79
2024/03/26 07:34:32;;;;;;;2.70;1.42;;;7.90;99.90;;;;;;5044191;28;20045;-79
2024/03/26 07:36:58;;;;;;;3.55;1.75;;;8.00;99.90;;;;;;5016852;28;20052;-81
2024/03/26 07:39:24;;;;;;;5.80;1.27;;;8.10;99.90;;;;;;5035689;28;20103;-80
2024/03/26 07:41:50;;;;;;;4.57;1.58;;;8.20;99.90;;;;;;5021331;28;20038;-82
2024/03/26 07:44:15;;;;;;;20.27;1.60;;;8.30;99.90;;;;;;5006530;28;20076;-77
2024/03/26 07:46:43;;;;;;;3.42;1.25;;;8.40;99.90;;;;;;5018814;28;20030;-77
2024/03/26 07:49:09;;;;;;;8.88;1.58;;;8.50;99.90;;;;;;5030166;28;20037;-77
2024/03/26 07:51:37;;;;;;;2.95;1.23;;;8.50;99.90;;;;;;5032989;28;20046;-77
2024/03/26 07:54:04;;;;;;;3.75;1.58;;;8.50;99.90;;;;;;5022467;28;20044;-77
2024/03/26 07:56:30;;;;;;;4.75;1.92;;;8.60;99.90;;;;;;5027116;28;20398;-77
2024/03/26 07:58:55;;;;;;;8.75;1.85;;;8.70;99.90;;;;;;5036914;28;20025;-77
2024/03/26 08:01:21;;;;;;;5.03;1.30;;;8.80;99.90;;;;;;5029386;28;20022;-77
2024/03/26 08:03:47;;;;;;;7.85;1.80;;;8.80;99.90;;;;;;5029179;28;20030;-77
2024/03/26 08:06:12;;;;;;;4.93;2.30;;;8.80;99.90;;;;;;5026572;28;20398;-76
2024/03/26 08:08:38;;;;;;;2.45;1.30;;;9.00;99.90;;;;;;5028915;28;20033;-76
2024/03/26 08:11:12;;;;;;;5.80;2.88;;;9.10;99.90;;;;;;5034983;28;20037;-79
2024/03/26 08:13:39;;;;;;;5.47;1.52;;;9.00;99.90;;;;;;5029757;28;20048;-76
2024/03/26 08:16:06;;;;;;;3.10;1.23;;;8.80;99.90;;;;;;5031566;28;20067;-76
2024/03/26 08:18:32;;;;;;;6.80;1.90;;;8.60;99.90;;;;;;5039421;28;20033;-77
2024/03/26 08:21:00;;;;;;;9.25;1.60;;;9.00;99.90;;;;;;5035584;28;20037;-79
2024/03/26 08:23:26;;;;;;;2.45;1.65;;;9.10;99.90;;;;;;5021755;28;20014;-80
2024/03/26 08:25:53;;;;;;;2.53;1.33;;;9.30;99.90;;;;;;5031918;28;20032;-79
2024/03/26 08:28:19;;;;;;;5.55;1.88;;;9.10;99.90;;;;;;5031263;28;20092;-78
2024/03/26 08:30:45;;;;;;;3.33;1.80;;;9.00;99.90;;;;;;5023214;28;20041;-79
2024/03/26 08:33:11;;;;;;;2.30;1.63;;;9.10;99.90;;;;;;5033395;28;20037;-78
2024/03/26 08:35:42;;;;;;;8.30;1.55;;;8.90;99.90;;;;;;5042607;28;20039;-77
2024/03/26 08:38:08;;;;;;;2.58;1.23;;;9.00;99.90;;;;;;5045723;28;20730;-77
2024/03/26 08:40:37;;;;;;;5.68;1.92;;;9.30;99.90;;;;;;5029536;28;20036;-79
2024/03/26 08:43:03;;;;;;;9.82;2.17;;;9.50;99.90;;;;;;5034144;28;20464;-78
2024/03/26 08:45:29;;;;;;;3.78;1.92;;;9.80;99.90;;;;;;5027504;28;20065;-78
2024/03/26 08:47:56;;;;;;;2.60;1.20;;;9.60;99.90;;;;;;5013807;28;20125;-77
2024/03/26 08:50:22;;;;;;;2.80;1.50;;;9.20;99.90;;;;;;5016730;28;20056;-77
2024/03/26 08:52:48;;;;;;;1.90;1.10;;;9.20;99.90;;;;;;5033114;28;20394;-78
2024/03/26 08:55:14;;;;;;;2.10;1.48;;;9.70;99.90;;;;;;5031802;28;20029;-78
2024/03/26 08:57:40;;;;;;;3.60;1.83;;;9.70;99.90;;;;;;5029575;28;20029;-78
2024/03/26 09:00:10;;;;;;;3.60;1.60;;;9.90;99.90;;;;;;5026595;28;20037;-78
2024/03/26 09:02:37;;;;;;;3.67;1.95;;;10.00;99.90;;;;;;5021975;28;20410;-78
2024/03/26 09:05:03;;;;;;;2.15;1.33;;;9.80;99.90;;;;;;5036817;28;20065;-78
2024/03/26 09:07:29;;;;;;;5.40;1.40;;;9.50;99.90;;;;;;5027706;28;20426;-78
2024/03/26 09:09:55;;;;;;;2.67;1.40;;;9.40;99.50;;;;;;5025443;28;20041;-78
2024/03/26 09:12:21;;;;;;;2.40;1.33;;;9.50;99.40;;;;;;5025285;28;20470;-78
2024/03/26 09:14:46;;;;;;;3.05;1.40;;;9.70;99.40;;;;;;5024326;28;20026;-78
2024/03/26 09:17:12;;;;;;;4.53;1.67;;;10.00;98.90;;;;;;5015758;28;20026;-78
2024/03/26 09:19:38;;;;;;;3.00;1.55;;;9.80;98.80;;;;;;5025089;28;20021;-78
2024/03/26 09:22:04;;;;;;;8.50;1.83;;;9.70;98.80;;;;;;5036433;28;20029;-79
2024/03/26 09:24:30;;;;;;;2.65;1.60;;;9.80;98.90;;;;;;5030836;28;20113;-78
2024/03/26 09:26:55;;;;;;;2.72;1.50;;;10.00;98.90;;;;;;5014719;28;20471;-78
2024/03/26 09:29:22;;;;;;;19.13;1.80;;;9.90;99.10;;;;;;5032292;28;20181;-78
2024/03/26 09:31:49;;;;;;;6.65;2.08;;;10.00;99.20;;;;;;5028202;28;20034;-77
2024/03/26 09:34:14;;;;;;;6.65;1.98;;;10.30;98.80;;;;;;5032984;28;20034;-78
2024/03/26 09:36:41;;;;;;;4.00;1.35;;;10.30;98.50;;;;;;5035553;28;20108;-78
2024/03/26 09:39:08;;;;;;;4.00;1.52;;;10.30;99.20;;;;;;5034183;28;20087;-78
2024/03/26 09:41:38;;;;;;;3.88;1.63;;;10.80;99.10;;;;;;5035692;28;20140;-78
2024/03/26 09:44:04;;;;;;;7.05;1.80;;;10.40;99.00;;;;;;5035332;28;20140;-76
2024/03/26 09:46:31;;;;;;;4.88;1.55;;;10.20;98.80;;;;;;5028634;28;20149;-75
2024/03/26 09:49:03;;;;;;;11.75;2.40;;;10.30;99.10;;;;;;5013268;28;20022;-74
2024/03/26 09:51:35;;;;;;;6.28;1.50;;;10.70;98.80;;;;;;5024854;28;20033;-76
2024/03/26 09:54:01;;;;;;;4.30;1.60;;;11.20;98.10;;;;;;5006087;28;20163;-76
2024/03/26 09:56:27;;;;;;;4.25;1.33;;;11.40;97.80;;;;;;4993409;23;20128;-69
2024/03/26 09:58:53;;;;;;;4.60;1.27;;;11.20;97.90;;;;;;4992281;28;20030;-72
2024/03/26 10:01:25;;;;;;;3.25;1.52;;;11.40;97.90;;;;;;4974861;28;20026;-72
2024/03/26 10:03:54;;;;;;;8.75;2.63;;;10.90;97.60;;;;;;4976096;28;20049;-71
2024/03/26 10:06:20;;;;;;;3.22;1.55;;;11.10;97.70;;;;;;4965495;28;20472;-71
2024/03/26 10:08:47;;;;;;;4.20;1.77;;;11.40;97.00;;;;;;4972107;28;20039;-70
2024/03/26 10:11:13;;;;;;;3.05;1.33;;;11.60;97.00;;;;;;4970656;28;20035;-70
2024/03/26 10:13:39;;;;;;;8.52;1.25;;;11.30;96.90;;;;;;4972312;28;20494;-71
2024/03/26 10:16:05;;;;;;;2.90;1.30;;;11.20;97.60;;;;;;4971212;28;20550;-71
2024/03/26 10:18:31;;;;;;;6.78;1.92;;;11.60;97.50;;;;;;4970897;28;20069;-71
2024/03/26 10:20:58;;;;;;;4.80;1.85;;;11.60;97.40;;;;;;4971938;28;20123;-71
2024/03/26 10:23:26;;;;;;;7.72;2.45;;;11.60;96.70;;;;;;4972581;28;20535;-71
2024/03/26 10:25:52;;;;;;;5.78;2.45;;;11.80;97.30;;;;;;4970573;28;20031;-74
2024/03/26 10:28:17;;;;;;;6.35;2.17;;;12.00;98.10;;;;;;4971414;28;20579;-71
2024/03/26 10:30:44;;;;;;;2.70;1.40;;;11.70;97.30;;;;;;4966577;28;20503;-70
2024/03/26 10:33:11;;;;;;;2.75;1.40;;;12.00;96.80;;;;;;4972614;28;20122;-70
2024/03/26 10:35:41;;;;;;;4.20;1.38;;;12.00;96.80;;;;;;4965301;28;20041;-71
2024/03/26 10:38:09;;;;;;;3.88;1.70;;;12.30;97.50;;;;;;4970269;28;20023;-72
2024/03/26 10:40:42;;;;;;;2.20;1.20;;;13.00;96.80;;;;;;4965671;28;20105;-71
2024/03/26 10:43:08;;;;;;;8.90;2.13;;;12.80;96.90;;;;;;4970598;28;20046;-70
2024/03/26 10:45:34;;;;;;;2.60;1.48;;;13.10;96.10;;;;;;4969676;28;20085;-71
2024/03/26 10:48:01;;;;;;;5.18;1.90;;;13.40;95.50;;;;;;4970838;28;20050;-70
2024/03/26 10:50:28;;;;;;;3.22;1.42;;;13.20;95.60;;;;;;4975754;28;20061;-71
2024/03/26 10:52:55;;;;;;;2.65;1.40;;;13.40;95.70;;;;;;4971735;28;20601;-71
2024/03/26 10:55:21;;;;;;;5.13;1.40;;;13.10;95.70;;;;;;4965718;28;20114;-70
2024/03/26 10:57:48;;;;;;;4.53;1.77;;;14.00;95.30;;;;;;4972332;28;20122;-70
2024/03/26 11:00:15;;;;;;;3.33;1.90;;;14.10;94.80;;;;;;4971602;28;20023;-70
2024/03/26 11:02:48;;;;;;;4.38;1.75;;;14.00;94.40;;;;;;4971399;28;20034;-70
2024/03/26 11:05:15;;;;;;;5.82;1.40;;;13.20;95.00;;;;;;4978076;28;20046;-71
2024/03/26 11:07:43;;;;;;;4.85;1.10;;;13.80;95.20;;;;;;4974997;28;20093;-70
2024/03/26 11:10:17;;;;;;;4.45;1.13;;;14.20;94.00;;;;;;4969552;28;20031;-71
2024/03/26 11:12:48;;;;;;;3.83;1.73;;;14.50;93.90;;;;;;4974463;28;20637;-71
2024/03/26 11:15:16;;;;;;;7.97;1.73;;;15.00;94.50;;;;;;4968690;28;20030;-71
2024/03/26 11:18:02;;;;;;;5.07;2.60;;;14.10;93.70;;;;;;4975513;28;20558;-70
2024/03/26 11:20:32;;;;;;;2.35;1.20;;;14.40;93.80;;;;;;4975181;28;20066;-71
2024/03/26 11:23:03;;;;;;;9.07;1.83;;;14.80;94.00;;;;;;4975075;28;20097;-71
2024/03/26 11:25:34;;;;;;;2.83;1.30;;;15.00;93.60;;;;;;4952392;28;20031;-71
2024/03/26 11:28:03;;;;;;;3.00;1.40;;;14.80;92.70;;;;;;4974770;28;20395;-71
2024/03/26 11:30:32;;;;;;;4.85;1.75;;;15.00;91.90;;;;;;4973247;28;20332;-71
2024/03/26 11:33:00;;;;;;;3.63;1.55;;;15.10;92.80;;;;;;4973710;28;20565;-71
2024/03/26 11:35:29;;;;;;;3.03;1.67;;;15.60;91.20;;;;;;4979174;28;20035;-71
2024/03/26 11:38:00;;;;;;;16.95;2.22;;;15.50;91.80;;;;;;4973893;28;20098;-71
2024/03/26 11:40:26;;;;;;;9.07;1.45;;;15.60;92.00;;;;;;4967939;28;20093;-71
2024/03/26 11:42:53;;;;;;;8.45;2.33;;;15.40;91.80;;;;;;4973056;28;20031;-71
2024/03/26 11:45:19;;;;;;;6.00;2.55;;;16.00;91.30;;;;;;4968193;28;20033;-71
2024/03/26 11:47:45;;;;;;;9.18;2.63;;;15.30;91.30;;;;;;4973081;28;20023;-71
2024/03/26 11:50:11;;;;;;;6.93;1.77;;;16.10;91.20;;;;;;4968269;28;20381;-71
2024/03/26 11:52:38;;;;;;;3.72;1.85;;;16.40;89.70;;;;;;4974348;28;20034;-71
2024/03/26 11:55:07;;;;;;;4.63;1.85;;;16.30;89.90;;;;;;4967153;28;20109;-71
2024/03/26 11:57:36;;;;;;;1.83;1.00;;;16.90;90.70;;;;;;4974477;28;20129;-71
2024/03/26 12:00:04;;;;;;;2.85;1.00;;;16.60;87.20;;;;;;4968709;28;20105;-70
2024/03/26 12:02:30;;;;;;;3.95;1.23;;;17.70;86.70;;;;;;4973141;28;20515;-71
2024/03/26 12:04:57;;;;;;;3.65;1.33;;;17.10;86.90;;;;;;4972428;28;20062;-71
2024/03/26 12:07:29;;;;;;;2.08;1.00;;;16.60;88.70;;;;;;4972402;28;20565;-71
2024/03/26 12:09:55;;;;;;;3.25;1.10;;;16.90;88.40;;;;;;4967587;28;20122;-71
2024/03/26 12:12:20;;;;;;;3.67;1.08;;;17.30;87.20;;;;;;4972803;28;20134;-71
2024/03/26 12:14:47;;;;;;;3.22;1.20;;;17.90;83.70;;;;;;4970932;28;20113;-71
2024/03/26 12:17:13;;;;;;;3.25;1.20;;;17.20;83.70;;;;;;4973362;28;20027;-71
2024/03/26 12:19:44;;;;;;;2.00;1.02;;;17.30;84.00;;;;;;4973386;28;20495;-72
2024/03/26 12:22:18;;;;;;;1.45;0.85;;;16.70;83.00;;;;;;4972189;28;20121;-72
2024/03/26 12:24:46;;;;;;;2.65;1.05;;;18.90;81.80;;;;;;4973413;28;20113;-69
2024/03/26 12:27:12;;;;;;;2.13;1.08;;;19.00;77.40;;;;;;4987504;28;20055;-70
2024/03/26 12:29:39;;;;;;;1.60;0.70;;;19.90;77.30;;;;;;4955298;28;20507;-70
2024/03/26 12:32:05;;;;;;;2.33;1.42;;;22.20;72.10;;;;;;4987216;28;20041;-71
2024/03/26 12:34:35;;;;;;;1.60;0.90;;;22.30;68.10;;;;;;4977294;28;20046;-70
2024/03/26 12:37:03;;;;;;;1.33;0.82;;;22.60;63.40;;;;;;4972826;28;20022;-71
2024/03/26 12:39:32;;;;;;;2.38;0.90;;;20.80;63.90;;;;;;4971861;28;20480;-71
2024/03/26 12:41:57;;;;;;;2.40;1.30;;;22.10;65.40;;;;;;4973230;28;20709;-71
2024/03/26 12:44:25;;;;;;;2.75;1.33;;;22.40;63.10;;;;;;4972486;28;20109;-70
2024/03/26 12:46:51;;;;;;;5.53;1.85;;;22.50;59.70;;;;;;4972914;28;20118;-71
2024/03/26 12:49:18;;;;;;;1.17;0.65;;;22.40;61.60;;;;;;4973143;28;20023;-71